| time (UTC) | temp C | wind direction | speed KPH | gust KPH | rain 1hr cm | rain 24hr cm | rain mn cm | humidity % | barometer mb |
| 20260508045933 | 33 | 303 | 1.6 | 3.2 | 0.00 | 0.00 | 0.00 | 63 | 1009.1 |
| 20260508045430 | 33 | 268 | 6.4 | 6.4 | 0.00 | 0.00 | 0.00 | 64 | 1009.3 |
| 20260508044928 | 33 | 86 | 6.4 | 6.4 | 0.00 | 0.00 | 0.00 | 64 | 1009.3 |
| 20260508044425 | 33 | 323 | 4.8 | 6.4 | 0.00 | 0.00 | 0.00 | 64 | 1009.3 |
| 20260508043925 | 33 | 20 | 1.6 | 9.7 | 0.00 | 0.00 | 0.00 | 65 | 1009.3 |
| 20260508043423 | 33 | 111 | 6.4 | 9.7 | 0.00 | 0.00 | 0.00 | 65 | 1009.4 |
| 20260508042919 | 33 | 143 | 6.4 | 12.9 | 0.00 | 0.00 | 0.00 | 66 | 1009.5 |
| 20260508042418 | 33 | 195 | 1.6 | 12.9 | 0.00 | 0.00 | 0.00 | 66 | 1009.4 |
| 20260508041914 | 33 | 137 | 11.3 | 20.9 | 0.00 | 0.00 | 0.00 | 66 | 1009.6 |
| 20260508041411 | 33 | 359 | 0.0 | 6.4 | 0.00 | 0.00 | 0.00 | 65 | 1009.6 |
| 20260508040907 | 33 | 56 | 8.0 | 9.7 | 0.00 | 0.00 | 0.00 | 64 | 1009.6 |
| 20260508040404 | 33 | 51 | 3.2 | 9.7 | 0.00 | 0.00 | 0.00 | 66 | 1009.8 |
| 20260508035902 | 32 | 65 | 6.4 | 11.3 | 0.00 | 0.00 | 0.00 | 67 | 1009.8 |
| 20260508035359 | 32 | 18 | 4.8 | 14.5 | 0.00 | 0.00 | 0.00 | 67 | 1009.8 |
| 20260508034856 | 32 | 27 | 4.8 | 4.8 | 0.00 | 0.00 | 0.00 | 67 | 1009.9 |
| 20260508034353 | 32 | 61 | 11.3 | 16.1 | 0.00 | 0.00 | 0.00 | 69 | 1010.1 |
| 20260508033850 | 32 | 80 | 6.4 | 9.7 | 0.00 | 0.00 | 0.00 | 68 | 1010.1 |
| 20260508033348 | 32 | 47 | 8.0 | 12.9 | 0.00 | 0.00 | 0.00 | 67 | 1010.0 |
| 20260508032845 | 32 | 135 | 11.3 | 17.7 | 0.00 | 0.00 | 0.00 | 68 | 1010.1 |
| 20260508032343 | 32 | 133 | 3.2 | 11.3 | 0.00 | 0.00 | 0.00 | 68 | 1010.2 |
| 20260508031839 | 32 | 161 | 4.8 | 6.4 | 0.00 | 0.00 | 0.00 | 68 | 1010.4 |
| 20260508031336 | 32 | 46 | 6.4 | 9.7 | 0.00 | 0.00 | 0.00 | 68 | 1010.6 |
| 20260508030832 | 31 | 120 | 4.8 | 9.7 | 0.00 | 0.00 | 0.00 | 69 | 1010.5 |
| 20260508030329 | 32 | 87 | 11.3 | 14.5 | 0.00 | 0.00 | 0.00 | 68 | 1010.5 |
| 20260508025826 | 31 | 100 | 6.4 | 14.5 | 0.00 | 0.00 | 0.00 | 69 | 1010.5 |
| 20260508025323 | 32 | 25 | 1.6 | 6.4 | 0.00 | 0.00 | 0.00 | 68 | 1010.5 |
| 20260508024820 | 31 | 200 | 11.3 | 14.5 | 0.00 | 0.00 | 0.00 | 69 | 1010.6 |
| 20260508024316 | 31 | 102 | 12.9 | 16.1 | 0.00 | 0.00 | 0.00 | 71 | 1010.5 |
| 20260508023813 | 31 | 137 | 9.7 | 16.1 | 0.00 | 0.00 | 0.00 | 69 | 1010.7 |
| 20260508023310 | 31 | 90 | 12.9 | 17.7 | 0.00 | 0.00 | 0.00 | 70 | 1010.8 |
| 20260508022807 | 31 | 90 | 3.2 | 16.1 | 0.00 | 0.00 | 0.00 | 70 | 1010.7 |
| 20260508022306 | 32 | 90 | 11.3 | 17.7 | 0.00 | 0.00 | 0.00 | 67 | 1010.5 |
| 20260508021800 | 31 | 344 | 1.6 | 14.5 | 0.00 | 0.00 | 0.00 | 69 | 1010.5 |
| 20260508021255 | 31 | 123 | 3.2 | 6.4 | 0.00 | 0.00 | 0.00 | 70 | 1010.4 |
| 20260508020752 | 31 | 76 | 1.6 | 9.7 | 0.00 | 0.00 | 0.00 | 71 | 1010.6 |
| 20260508020250 | 31 | 94 | 6.4 | 14.5 | 0.00 | 0.00 | 0.00 | 72 | 1010.5 |
| 20260508015746 | 31 | 35 | 3.2 | 12.9 | 0.00 | 0.00 | 0.00 | 71 | 1010.5 |
| 20260508015244 | 30 | 104 | 12.9 | 14.5 | 0.00 | 0.00 | 0.00 | 72 | 1010.5 |
| 20260508014741 | 31 | 139 | 4.8 | 12.9 | 0.00 | 0.00 | 0.00 | 72 | 1010.7 |
| 20260508014237 | 30 | 100 | 8.0 | 11.3 | 0.00 | 0.00 | 0.00 | 73 | 1010.6 |
| 20260508013733 | 30 | 45 | 6.4 | 14.5 | 0.00 | 0.00 | 0.00 | 75 | 1010.5 |
| 20260508013230 | 30 | 21 | 8.0 | 12.9 | 0.00 | 0.00 | 0.00 | 74 | 1010.4 |
| 20260508012728 | 30 | 52 | 8.0 | 12.9 | 0.00 | 0.00 | 0.00 | 75 | 1010.5 |
| 20260508012224 | 30 | 90 | 6.4 | 11.3 | 0.00 | 0.00 | 0.00 | 76 | 1010.3 |
| 20260508011722 | 30 | 104 | 8.0 | 12.9 | 0.00 | 0.00 | 0.00 | 76 | 1010.2 |
| 20260508011220 | 30 | 68 | 3.2 | 9.7 | 0.00 | 0.00 | 0.00 | 76 | 1010.4 |
| 20260508010716 | 30 | 138 | 3.2 | 9.7 | 0.00 | 0.00 | 0.00 | 75 | 1010.2 |
| 20260508010214 | 30 | 204 | 6.4 | 17.7 | 0.00 | 0.00 | 0.00 | 76 | 1010.3 |
| 20260508005711 | 30 | 0 | 3.2 | 6.4 | 0.00 | 0.00 | 0.00 | 75 | 1010.2 |
| 20260508005208 | 30 | 102 | 4.8 | 11.3 | 0.00 | 0.00 | 0.00 | 77 | 1010.2 |
| 20260508004703 | 30 | 132 | 9.7 | 14.5 | 0.00 | 0.00 | 0.00 | 77 | 1009.9 |
| 20260508004200 | 30 | 68 | 6.4 | 12.9 | 0.00 | 0.00 | 0.00 | 76 | 1010.1 |
| 20260508003657 | 30 | 116 | 3.2 | 11.3 | 0.00 | 0.00 | 0.00 | 77 | 1010.1 |
| 20260508003154 | 30 | 58 | 0.0 | 6.4 | 0.00 | 0.00 | 0.00 | 77 | 1010.0 |
| 20260508002650 | 29 | 42 | 1.6 | 11.3 | 0.00 | 0.00 | 0.00 | 77 | 1009.9 |
| 20260508002148 | 30 | 150 | 9.7 | 12.9 | 0.00 | 0.00 | 0.00 | 77 | 1010.0 |
| 20260508001643 | 29 | 114 | 9.7 | 17.7 | 0.00 | 0.00 | 0.00 | 77 | 1009.8 |
| 20260508001139 | 28 | 64 | 6.4 | 9.7 | 0.00 | 0.00 | 0.00 | 78 | 1010.0 |
| 20260508000635 | 29 | 82 | 1.6 | 6.4 | 0.00 | 0.00 | 0.00 | 81 | 1009.5 |
| 20260508000133 | 28 | 45 | 3.2 | 9.7 | 0.00 | 0.00 | 0.00 | 81 | 1009.6 |
| 20260507235630 | 28 | 161 | 4.8 | 11.3 | 0.00 | 0.00 | 0.00 | 83 | 1009.4 |
| 20260507235127 | 28 | 152 | 9.7 | 17.7 | 0.00 | 0.00 | 0.00 | 83 | 1009.6 |
| 20260507234623 | 28 | 67 | 9.7 | 12.9 | 0.00 | 0.00 | 0.00 | 83 | 1009.5 |
| 20260507234120 | 28 | 65 | 3.2 | 9.7 | 0.00 | 0.00 | 0.00 | 84 | 1009.5 |
| 20260507233617 | 28 | 85 | 11.3 | 12.9 | 0.00 | 0.00 | 0.00 | 84 | 1009.5 |
| 20260507233116 | 28 | 103 | 14.5 | 17.7 | 0.00 | 0.00 | 0.00 | 84 | 1009.3 |
| 20260507232612 | 28 | 124 | 14.5 | 17.7 | 0.00 | 0.00 | 0.00 | 84 | 1009.2 |
| 20260507232109 | 28 | 91 | 8.0 | 11.3 | 0.00 | 0.00 | 0.00 | 84 | 1009.3 |
| 20260507231605 | 28 | 119 | 3.2 | 11.3 | 0.00 | 0.00 | 0.00 | 84 | 1009.2 |
| 20260507231102 | 28 | 89 | 4.8 | 6.4 | 0.00 | 0.00 | 0.00 | 84 | 1009.1 |
| 20260507230559 | 28 | 142 | 1.6 | 11.3 | 0.00 | 0.00 | 0.00 | 84 | 1009.0 |
| 20260507230055 | 28 | 120 | 6.4 | 11.3 | 0.00 | 0.00 | 0.00 | 84 | 1009.1 |
| 20260507225550 | 28 | 150 | 4.8 | 11.3 | 0.00 | 0.00 | 0.00 | 84 | 1009.0 |
| 20260507225047 | 28 | 100 | 6.4 | 11.3 | 0.00 | 0.00 | 0.00 | 84 | 1009.0 |
| 20260507224543 | 28 | 105 | 4.8 | 11.3 | 0.00 | 0.00 | 0.00 | 84 | 1008.7 |
| 20260507224040 | 28 | 75 | 3.2 | 9.7 | 0.00 | 0.00 | 0.00 | 84 | 1008.7 |
| 20260507223536 | 28 | 135 | 3.2 | 4.8 | 0.00 | 0.00 | 0.00 | 84 | 1008.7 |
| 20260507223033 | 28 | 126 | 6.4 | 9.7 | 0.00 | 0.00 | 0.00 | 84 | 1008.8 |
| 20260507222530 | 28 | 97 | 4.8 | 6.4 | 0.00 | 0.00 | 0.00 | 84 | 1008.9 |
| 20260507222026 | 28 | 117 | 6.4 | 9.7 | 0.00 | 0.00 | 0.00 | 85 | 1008.9 |
| 20260507221523 | 28 | 75 | 1.6 | 3.2 | 0.00 | 0.00 | 0.00 | 85 | 1008.9 |
| 20260507221020 | 28 | 105 | 6.4 | 6.4 | 0.00 | 0.00 | 0.00 | 85 | 1008.9 |
| 20260507220517 | 28 | 69 | 8.0 | 16.1 | 0.00 | 0.00 | 0.00 | 85 | 1008.8 |
| 20260507220015 | 28 | 107 | 9.7 | 12.9 | 0.00 | 0.00 | 0.00 | 85 | 1008.7 |
| 20260507215510 | 28 | 90 | 6.4 | 16.1 | 0.00 | 0.00 | 0.00 | 84 | 1008.9 |
| 20260507215009 | 28 | 106 | 3.2 | 14.5 | 0.00 | 0.00 | 0.00 | 84 | 1008.8 |
| 20260507214505 | 28 | 120 | 6.4 | 6.4 | 0.00 | 0.00 | 0.00 | 84 | 1008.8 |
| 20260507214000 | 28 | 110 | 4.8 | 11.3 | 0.00 | 0.00 | 0.00 | 84 | 1008.9 |
| 20260507213458 | 28 | 125 | 8.0 | 12.9 | 0.00 | 0.00 | 0.00 | 84 | 1008.8 |
| 20260507212954 | 28 | 71 | 4.8 | 6.4 | 0.00 | 0.00 | 0.00 | 84 | 1008.8 |
| 20260507212450 | 28 | 29 | 0.0 | 6.4 | 0.00 | 0.00 | 0.00 | 84 | 1008.6 |
| 20260507211948 | 28 | 95 | 8.0 | 12.9 | 0.00 | 0.00 | 0.00 | 84 | 1008.7 |
| 20260507211444 | 28 | 50 | 1.6 | 9.7 | 0.00 | 0.00 | 0.00 | 84 | 1008.7 |
| 20260507210941 | 28 | 94 | 3.2 | 9.7 | 0.00 | 0.00 | 0.00 | 84 | 1008.7 |
| 20260507210438 | 28 | 118 | 6.4 | 9.7 | 0.00 | 0.00 | 0.00 | 84 | 1008.7 |
| 20260507205934 | 28 | 105 | 8.0 | 9.7 | 0.00 | 0.00 | 0.00 | 84 | 1008.6 |
| 20260507205432 | 28 | 102 | 0.0 | 6.4 | 0.00 | 0.00 | 0.00 | 84 | 1008.6 |
| 20260507204928 | 28 | 27 | 0.0 | 4.8 | 0.00 | 0.00 | 0.00 | 84 | 1008.4 |
| 20260507204424 | 28 | 32 | 1.6 | 4.8 | 0.00 | 0.00 | 0.00 | 84 | 1008.6 |
| 20260507203922 | 28 | 74 | 6.4 | 6.4 | 0.00 | 0.00 | 0.00 | 84 | 1008.4 |
| 20260507203420 | 28 | 21 | 0.0 | 3.2 | 0.00 | 0.00 | 0.00 | 84 | 1008.3 |
| 20260507202915 | 28 | 31 | 4.8 | 6.4 | 0.00 | 0.00 | 0.00 | 84 | 1008.3 |
| 20260507202413 | 28 | 134 | 3.2 | 11.3 | 0.00 | 0.00 | 0.00 | 84 | 1008.1 |
| 20260507201908 | 28 | 48 | 3.2 | 9.7 | 0.00 | 0.00 | 0.00 | 84 | 1008.1 |
| 20260507201403 | 28 | 45 | 3.2 | 6.4 | 0.00 | 0.00 | 0.00 | 84 | 1008.2 |
| 20260507200900 | 28 | 96 | 1.6 | 4.8 | 0.00 | 0.00 | 0.00 | 84 | 1007.8 |
| 20260507200356 | 28 | 67 | 1.6 | 6.4 | 0.00 | 0.00 | 0.00 | 84 | 1007.8 |
| 20260507195852 | 28 | 78 | 9.7 | 14.5 | 0.00 | 0.00 | 0.00 | 85 | 1007.7 |
| 20260507195350 | 28 | 72 | 6.4 | 12.9 | 0.00 | 0.00 | 0.00 | 84 | 1008.0 |
| 20260507194847 | 28 | 63 | 6.4 | 11.3 | 0.00 | 0.00 | 0.00 | 84 | 1008.0 |
| 20260507194343 | 28 | 85 | 4.8 | 6.4 | 0.00 | 0.00 | 0.00 | 84 | 1008.0 |
| 20260507193839 | 28 | 92 | 6.4 | 11.3 | 0.00 | 0.00 | 0.00 | 84 | 1008.0 |
| 20260507193337 | 28 | 186 | 4.8 | 6.4 | 0.00 | 0.00 | 0.00 | 83 | 1007.9 |
| 20260507192833 | 28 | 76 | 9.7 | 12.9 | 0.00 | 0.00 | 0.00 | 83 | 1008.2 |
| 20260507192324 | 28 | 62 | 6.4 | 11.3 | 0.00 | 0.00 | 0.00 | 83 | 1007.8 |
| 20260507191820 | 28 | 154 | 6.4 | 9.7 | 0.00 | 0.00 | 0.00 | 83 | 1008.0 |
| 20260507191317 | 28 | 130 | 3.2 | 9.7 | 0.00 | 0.00 | 0.00 | 83 | 1008.1 |
| 20260507190814 | 28 | 89 | 6.4 | 9.7 | 0.00 | 0.00 | 0.00 | 83 | 1008.1 |
| 20260507190312 | 28 | 85 | 3.2 | 9.7 | 0.00 | 0.00 | 0.00 | 83 | 1008.2 |
| 20260507185810 | 28 | 102 | 4.8 | 14.5 | 0.00 | 0.00 | 0.00 | 83 | 1008.1 |
| 20260507185306 | 29 | 114 | 9.7 | 11.3 | 0.00 | 0.00 | 0.00 | 83 | 1008.1 |
| 20260507184804 | 28 | 53 | 6.4 | 12.9 | 0.00 | 0.00 | 0.00 | 83 | 1008.5 |
| 20260507184303 | 28 | 197 | 4.8 | 11.3 | 0.00 | 0.00 | 0.00 | 83 | 1008.4 |
| 20260507183759 | 29 | 97 | 11.3 | 12.9 | 0.00 | 0.00 | 0.00 | 83 | 1008.7 |
| 20260507183256 | 29 | 128 | 9.7 | 11.3 | 0.00 | 0.00 | 0.00 | 83 | 1008.7 |
| 20260507182754 | 29 | 99 | 3.2 | 9.7 | 0.00 | 0.00 | 0.00 | 83 | 1008.8 |
| 20260507182253 | 29 | 72 | 11.3 | 12.9 | 0.00 | 0.00 | 0.00 | 83 | 1008.8 |
| 20260507181751 | 28 | 82 | 3.2 | 6.4 | 0.00 | 0.00 | 0.00 | 83 | 1008.6 |
| 20260507181247 | 29 | 75 | 4.8 | 14.5 | 0.00 | 0.00 | 0.00 | 83 | 1008.7 |
| 20260507180743 | 28 | 55 | 1.6 | 6.4 | 0.00 | 0.00 | 0.00 | 83 | 1008.9 |
| 20260507180241 | 29 | 51 | 4.8 | 11.3 | 0.00 | 0.00 | 0.00 | 83 | 1008.9 |
| 20260507175736 | 29 | 133 | 12.9 | 14.5 | 0.00 | 0.00 | 0.00 | 82 | 1008.7 |
| 20260507175233 | 29 | 161 | 6.4 | 14.5 | 0.00 | 0.00 | 0.00 | 82 | 1008.8 |
| 20260507174731 | 29 | 135 | 6.4 | 16.1 | 0.00 | 0.00 | 0.00 | 82 | 1008.8 |
| 20260507174228 | 29 | 118 | 6.4 | 12.9 | 0.00 | 0.00 | 0.00 | 82 | 1008.8 |
| 20260507173726 | 29 | 96 | 6.4 | 11.3 | 0.00 | 0.00 | 0.00 | 82 | 1008.9 |
| 20260507173222 | 29 | 96 | 4.8 | 9.7 | 0.00 | 0.00 | 0.00 | 82 | 1009.0 |
| 20260507172719 | 29 | 124 | 8.0 | 14.5 | 0.00 | 0.00 | 0.00 | 82 | 1009.1 |
| 20260507172216 | 29 | 117 | 3.2 | 4.8 | 0.00 | 0.00 | 0.00 | 82 | 1009.0 |
| 20260507171711 | 29 | 115 | 1.6 | 9.7 | 0.00 | 0.00 | 0.00 | 82 | 1009.2 |
| 20260507171208 | 29 | 77 | 3.2 | 4.8 | 0.00 | 0.00 | 0.00 | 82 | 1009.1 |
| 20260507170704 | 29 | 94 | 4.8 | 16.1 | 0.00 | 0.00 | 0.00 | 82 | 1009.2 |
| 20260507170202 | 29 | 80 | 9.7 | 14.5 | 0.00 | 0.00 | 0.00 | 82 | 1009.1 |
| 20260507165657 | 29 | 44 | 3.2 | 9.7 | 0.00 | 0.00 | 0.00 | 82 | 1009.4 |
| 20260507165148 | 29 | 106 | 8.0 | 12.9 | 0.00 | 0.00 | 0.00 | 81 | 1009.3 |
| 20260507164644 | 29 | 70 | 9.7 | 14.5 | 0.00 | 0.00 | 0.00 | 82 | 1009.4 |
| 20260507164141 | 29 | 90 | 8.0 | 9.7 | 0.00 | 0.00 | 0.00 | 82 | 1009.5 |
| 20260507163633 | 29 | 87 | 12.9 | 16.1 | 0.00 | 0.00 | 0.00 | 82 | 1009.5 |
| 20260507163131 | 29 | 57 | 9.7 | 14.5 | 0.00 | 0.00 | 0.00 | 83 | 1009.5 |
| 20260507162626 | 29 | 85 | 11.3 | 16.1 | 0.00 | 0.00 | 0.00 | 83 | 1009.5 |
| 20260507162123 | 29 | 90 | 6.4 | 9.7 | 0.00 | 0.00 | 0.00 | 82 | 1009.4 |
| 20260507161619 | 29 | 96 | 4.8 | 14.5 | 0.00 | 0.00 | 0.00 | 82 | 1009.7 |
| 20260507161116 | 29 | 75 | 6.4 | 14.5 | 0.00 | 0.00 | 0.00 | 82 | 1009.4 |
| 20260507160612 | 29 | 91 | 11.3 | 14.5 | 0.00 | 0.00 | 0.00 | 83 | 1009.5 |
| 20260507160109 | 29 | 128 | 8.0 | 12.9 | 0.00 | 0.00 | 0.00 | 83 | 1009.8 |
| 20260507155603 | 29 | 174 | 3.2 | 14.5 | 0.00 | 0.00 | 0.00 | 83 | 1009.7 |
| 20260507155055 | 30 | 77 | 14.5 | 16.1 | 0.00 | 0.00 | 0.00 | 83 | 1009.7 |
| 20260507154552 | 29 | 100 | 8.0 | 12.9 | 0.00 | 0.00 | 0.00 | 83 | 1009.6 |
| 20260507154049 | 29 | 121 | 8.0 | 12.9 | 0.00 | 0.00 | 0.00 | 83 | 1009.7 |
| 20260507153546 | 29 | 99 | 3.2 | 12.9 | 0.00 | 0.00 | 0.00 | 82 | 1009.7 |
| 20260507153042 | 29 | 69 | 9.7 | 14.5 | 0.00 | 0.00 | 0.00 | 82 | 1009.5 |
| 20260507152538 | 29 | 93 | 4.8 | 9.7 | 0.00 | 0.00 | 0.00 | 82 | 1009.3 |
| 20260507152035 | 29 | 114 | 6.4 | 11.3 | 0.00 | 0.00 | 0.00 | 82 | 1009.3 |
| 20260507151530 | 30 | 116 | 4.8 | 16.1 | 0.00 | 0.00 | 0.00 | 82 | 1009.3 |
| 20260507151027 | 30 | 127 | 9.7 | 12.9 | 0.00 | 0.00 | 0.00 | 82 | 1009.2 |
| 20260507150525 | 30 | 140 | 11.3 | 14.5 | 0.00 | 0.00 | 0.00 | 82 | 1009.5 |
| 20260507150021 | 29 | 116 | 8.0 | 11.3 | 0.00 | 0.00 | 0.00 | 82 | 1009.2 |
| 20260507145516 | 30 | 85 | 14.5 | 17.7 | 0.00 | 0.00 | 0.00 | 82 | 1009.2 |
| 20260507145015 | 30 | 47 | 3.2 | 12.9 | 0.00 | 0.00 | 0.00 | 81 | 1009.1 |
| 20260507144511 | 30 | 89 | 11.3 | 14.5 | 0.00 | 0.00 | 0.00 | 81 | 1008.9 |
| 20260507144008 | 30 | 102 | 11.3 | 14.5 | 0.00 | 0.00 | 0.00 | 81 | 1009.1 |
| 20260507143506 | 30 | 75 | 4.8 | 9.7 | 0.00 | 0.00 | 0.00 | 81 | 1008.9 |
| 20260507143003 | 30 | 99 | 6.4 | 14.5 | 0.00 | 0.00 | 0.00 | 81 | 1009.1 |
| 20260507142458 | 30 | 67 | 8.0 | 17.7 | 0.00 | 0.00 | 0.00 | 81 | 1008.7 |
| 20260507141955 | 30 | 72 | 12.9 | 17.7 | 0.00 | 0.00 | 0.00 | 80 | 1008.7 |
| 20260507141450 | 30 | 81 | 4.8 | 16.1 | 0.00 | 0.00 | 0.00 | 80 | 1008.8 |
| 20260507140947 | 30 | 91 | 6.4 | 12.9 | 0.00 | 0.00 | 0.00 | 80 | 1008.7 |
| 20260507140444 | 30 | 107 | 8.0 | 14.5 | 0.00 | 0.00 | 0.00 | 79 | 1008.6 |
| 20260507135941 | 30 | 145 | 3.2 | 6.4 | 0.00 | 0.00 | 0.00 | 79 | 1008.5 |
| 20260507135433 | 30 | 113 | 9.7 | 16.1 | 0.00 | 0.00 | 0.00 | 79 | 1008.3 |
| 20260507134930 | 30 | 72 | 4.8 | 16.1 | 0.00 | 0.00 | 0.00 | 79 | 1008.1 |
| 20260507134426 | 30 | 134 | 3.2 | 16.1 | 0.00 | 0.00 | 0.00 | 79 | 1008.3 |
| 20260507133922 | 30 | 111 | 12.9 | 17.7 | 0.00 | 0.00 | 0.00 | 79 | 1008.2 |
| 20260507133418 | 30 | 98 | 14.5 | 20.9 | 0.00 | 0.00 | 0.00 | 79 | 1008.0 |
| 20260507132911 | 30 | 158 | 9.7 | 24.1 | 0.00 | 0.00 | 0.00 | 79 | 1008.0 |
| 20260507132407 | 30 | 109 | 4.8 | 9.7 | 0.00 | 0.00 | 0.00 | 79 | 1008.0 |
| 20260507131905 | 30 | 96 | 8.0 | 16.1 | 0.00 | 0.00 | 0.00 | 79 | 1007.9 |
| 20260507131401 | 30 | 131 | 14.5 | 22.5 | 0.00 | 0.00 | 0.00 | 79 | 1007.9 |
| 20260507130858 | 30 | 116 | 14.5 | 20.9 | 0.00 | 0.00 | 0.00 | 79 | 1007.8 |
| 20260507130354 | 30 | 79 | 14.5 | 33.8 | 0.00 | 0.00 | 0.00 | 79 | 1007.5 |
| 20260507125853 | 30 | 68 | 9.7 | 25.7 | 0.00 | 0.00 | 0.00 | 79 | 1007.7 |
| 20260507125350 | 30 | 119 | 12.9 | 14.5 | 0.00 | 0.00 | 0.00 | 79 | 1007.6 |
| 20260507124848 | 30 | 144 | 14.5 | 20.9 | 0.00 | 0.00 | 0.00 | 79 | 1007.6 |
| 20260507124344 | 30 | 112 | 16.1 | 22.5 | 0.00 | 0.00 | 0.00 | 79 | 1007.6 |
| 20260507123843 | 30 | 72 | 9.7 | 17.7 | 0.00 | 0.00 | 0.00 | 78 | 1007.4 |
| 20260507123339 | 30 | 105 | 9.7 | 25.7 | 0.00 | 0.00 | 0.00 | 78 | 1007.3 |
| 20260507122836 | 30 | 108 | 17.7 | 27.4 | 0.00 | 0.00 | 0.00 | 78 | 1007.4 |
| 20260507122331 | 30 | 123 | 8.0 | 22.5 | 0.00 | 0.00 | 0.00 | 78 | 1007.3 |
| 20260507121828 | 30 | 180 | 17.7 | 22.5 | 0.00 | 0.00 | 0.00 | 77 | 1007.2 |
| 20260507121323 | 30 | 159 | 14.5 | 24.1 | 0.00 | 0.00 | 0.00 | 76 | 1007.0 |
| 20260507120820 | 30 | 146 | 22.5 | 29.0 | 0.00 | 0.00 | 0.00 | 75 | 1007.1 |
| 20260507120316 | 30 | 116 | 17.7 | 24.1 | 0.00 | 0.00 | 0.00 | 74 | 1007.0 |
| 20260507115812 | 30 | 144 | 14.5 | 27.4 | 0.00 | 0.00 | 0.00 | 74 | 1006.8 |
| 20260507115308 | 30 | 123 | 12.9 | 17.7 | 0.00 | 0.00 | 0.00 | 75 | 1006.7 |
| 20260507114804 | 31 | 127 | 8.0 | 11.3 | 0.00 | 0.00 | 0.00 | 75 | 1006.6 |
| 20260507114302 | 31 | 127 | 8.0 | 17.7 | 0.00 | 0.00 | 0.00 | 76 | 1006.6 |
| 20260507113800 | 30 | 137 | 9.7 | 20.9 | 0.00 | 0.00 | 0.00 | 76 | 1006.6 |
| 20260507113256 | 31 | 125 | 14.5 | 22.5 | 0.00 | 0.00 | 0.00 | 76 | 1006.5 |
| 20260507112754 | 30 | 150 | 11.3 | 24.1 | 0.00 | 0.00 | 0.00 | 76 | 1006.7 |
| 20260507112250 | 31 | 82 | 16.1 | 27.4 | 0.00 | 0.00 | 0.00 | 75 | 1006.6 |
| 20260507111748 | 31 | 126 | 9.7 | 24.1 | 0.00 | 0.00 | 0.00 | 74 | 1006.3 |
| 20260507111239 | 31 | 149 | 16.1 | 25.7 | 0.00 | 0.00 | 0.00 | 73 | 1006.2 |
| 20260507110735 | 31 | 108 | 20.9 | 25.7 | 0.00 | 0.00 | 0.00 | 72 | 1006.4 |
| 20260507110232 | 31 | 128 | 4.8 | 6.4 | 0.00 | 0.00 | 0.00 | 71 | 1006.1 |
| 20260507105729 | 31 | 129 | 12.9 | 14.5 | 0.00 | 0.00 | 0.00 | 71 | 1006.0 |
| 20260507105225 | 32 | 141 | 9.7 | 20.9 | 0.00 | 0.00 | 0.00 | 70 | 1005.8 |
| 20260507104722 | 32 | 151 | 6.4 | 20.9 | 0.00 | 0.00 | 0.00 | 69 | 1005.7 |
| 20260507104219 | 32 | 138 | 8.0 | 14.5 | 0.00 | 0.00 | 0.00 | 66 | 1005.8 |
| 20260507103714 | 32 | 98 | 8.0 | 11.3 | 0.00 | 0.00 | 0.00 | 64 | 1005.8 |
| 20260507103211 | 32 | 133 | 12.9 | 24.1 | 0.00 | 0.00 | 0.00 | 64 | 1005.5 |
| 20260507102707 | 32 | 129 | 19.3 | 27.4 | 0.00 | 0.00 | 0.00 | 65 | 1005.7 |
| 20260507102203 | 32 | 132 | 6.4 | 22.5 | 0.00 | 0.00 | 0.00 | 65 | 1005.6 |
| 20260507101700 | 32 | 134 | 8.0 | 17.7 | 0.00 | 0.00 | 0.00 | 65 | 1005.4 |
| 20260507101155 | 32 | 85 | 17.7 | 24.1 | 0.00 | 0.00 | 0.00 | 65 | 1005.2 |
| 20260507100653 | 33 | 143 | 16.1 | 24.1 | 0.00 | 0.00 | 0.00 | 65 | 1005.4 |
| 20260507100152 | 33 | 118 | 6.4 | 16.1 | 0.00 | 0.00 | 0.00 | 65 | 1005.2 |
| 20260507095649 | 33 | 120 | 9.7 | 12.9 | 0.00 | 0.00 | 0.00 | 66 | 1004.9 |
| 20260507095146 | 33 | 120 | 6.4 | 24.1 | 0.00 | 0.00 | 0.00 | 66 | 1005.1 |
| 20260507094642 | 33 | 115 | 16.1 | 22.5 | 0.00 | 0.00 | 0.00 | 66 | 1005.3 |
| 20260507094139 | 33 | 123 | 12.9 | 22.5 | 0.00 | 0.00 | 0.00 | 66 | 1004.9 |
| 20260507093636 | 33 | 104 | 16.1 | 17.7 | 0.00 | 0.00 | 0.00 | 65 | 1005.1 |
| 20260507093135 | 33 | 157 | 6.4 | 22.5 | 0.00 | 0.00 | 0.00 | 65 | 1005.0 |
| 20260507092631 | 33 | 164 | 16.1 | 20.9 | 0.00 | 0.00 | 0.00 | 65 | 1005.0 |
| 20260507092128 | 33 | 175 | 12.9 | 20.9 | 0.00 | 0.00 | 0.00 | 65 | 1005.1 |
| 20260507091624 | 33 | 99 | 14.5 | 17.7 | 0.00 | 0.00 | 0.00 | 65 | 1005.0 |
| 20260507091120 | 33 | 150 | 17.7 | 22.5 | 0.00 | 0.00 | 0.00 | 65 | 1005.2 |
| 20260507090616 | 33 | 169 | 17.7 | 22.5 | 0.00 | 0.00 | 0.00 | 64 | 1005.0 |
| 20260507090114 | 33 | 90 | 6.4 | 16.1 | 0.00 | 0.00 | 0.00 | 64 | 1005.1 |
| 20260507085610 | 33 | 137 | 9.7 | 12.9 | 0.00 | 0.00 | 0.00 | 63 | 1005.1 |
| 20260507085106 | 34 | 131 | 9.7 | 17.7 | 0.00 | 0.00 | 0.00 | 62 | 1005.1 |
| 20260507084603 | 34 | 216 | 9.7 | 12.9 | 0.00 | 0.00 | 0.00 | 62 | 1005.1 |
| 20260507084100 | 34 | 95 | 1.6 | 17.7 | 0.00 | 0.00 | 0.00 | 62 | 1005.2 |
| 20260507083556 | 34 | 163 | 6.4 | 16.1 | 0.00 | 0.00 | 0.00 | 62 | 1005.1 |
| 20260507083054 | 35 | 133 | 11.3 | 17.7 | 0.00 | 0.00 | 0.00 | 61 | 1005.0 |
| 20260507082549 | 35 | 154 | 8.0 | 11.3 | 0.00 | 0.00 | 0.00 | 61 | 1005.2 |
| 20260507082046 | 34 | 124 | 16.1 | 17.7 | 0.00 | 0.00 | 0.00 | 62 | 1005.1 |
| 20260507081542 | 34 | 95 | 9.7 | 12.9 | 0.00 | 0.00 | 0.00 | 61 | 1005.1 |
| 20260507081040 | 34 | 134 | 8.0 | 22.5 | 0.00 | 0.00 | 0.00 | 61 | 1005.3 |
| 20260507080535 | 35 | 53 | 12.9 | 20.9 | 0.00 | 0.00 | 0.00 | 61 | 1005.2 |
| 20260507080032 | 34 | 107 | 8.0 | 20.9 | 0.00 | 0.00 | 0.00 | 61 | 1005.3 |
| 20260507075527 | 34 | 139 | 4.8 | 11.3 | 0.00 | 0.00 | 0.00 | 62 | 1005.4 |
| 20260507075024 | 34 | 98 | 12.9 | 22.5 | 0.00 | 0.00 | 0.00 | 62 | 1005.3 |
| 20260507074520 | 35 | 117 | 6.4 | 17.7 | 0.00 | 0.00 | 0.00 | 61 | 1005.3 |
| 20260507074019 | 34 | 96 | 3.2 | 11.3 | 0.00 | 0.00 | 0.00 | 62 | 1005.3 |
| 20260507073515 | 34 | 121 | 14.5 | 17.7 | 0.00 | 0.00 | 0.00 | 61 | 1005.4 |
| 20260507073012 | 34 | 134 | 14.5 | 17.7 | 0.00 | 0.00 | 0.00 | 61 | 1005.5 |
| 20260507072509 | 35 | 139 | 16.1 | 20.9 | 0.00 | 0.00 | 0.00 | 61 | 1005.6 |
| 20260507072006 | 35 | 147 | 6.4 | 9.7 | 0.00 | 0.00 | 0.00 | 60 | 1005.5 |
| 20260507071504 | 34 | 120 | 6.4 | 16.1 | 0.00 | 0.00 | 0.00 | 61 | 1005.8 |
| 20260507071000 | 34 | 139 | 6.4 | 16.1 | 0.00 | 0.00 | 0.00 | 62 | 1006.0 |
| 20260507070457 | 35 | 110 | 11.3 | 16.1 | 0.00 | 0.00 | 0.00 | 61 | 1005.8 |
| 20260507065954 | 34 | 118 | 8.0 | 14.5 | 0.00 | 0.00 | 0.00 | 61 | 1006.1 |
| 20260507065451 | 34 | 69 | 9.7 | 14.5 | 0.00 | 0.00 | 0.00 | 61 | 1005.9 |
| 20260507064948 | 35 | 157 | 14.5 | 24.1 | 0.00 | 0.00 | 0.00 | 60 | 1006.0 |
| 20260507064446 | 36 | 129 | 11.3 | 14.5 | 0.00 | 0.00 | 0.00 | 58 | 1006.4 |
| 20260507063944 | 36 | 323 | 0.0 | 3.2 | 0.00 | 0.00 | 0.00 | 56 | 1006.3 |
| 20260507063440 | 35 | 218 | 3.2 | 9.7 | 0.00 | 0.00 | 0.00 | 58 | 1006.3 |
| 20260507062937 | 35 | 94 | 14.5 | 20.9 | 0.00 | 0.00 | 0.00 | 58 | 1006.7 |
| 20260507062435 | 35 | 53 | 3.2 | 16.1 | 0.00 | 0.00 | 0.00 | 60 | 1006.8 |
| 20260507061932 | 35 | 132 | 9.7 | 17.7 | 0.00 | 0.00 | 0.00 | 60 | 1006.7 |
| 20260507061430 | 35 | 358 | 3.2 | 6.4 | 0.00 | 0.00 | 0.00 | 59 | 1006.9 |
| 20260507060928 | 35 | 93 | 9.7 | 14.5 | 0.00 | 0.00 | 0.00 | 60 | 1007.2 |
| 20260507060425 | 35 | 160 | 16.1 | 17.7 | 0.00 | 0.00 | 0.00 | 60 | 1007.1 |
| 20260507055921 | 35 | 174 | 4.8 | 17.7 | 0.00 | 0.00 | 0.00 | 60 | 1007.1 |
| 20260507055416 | 34 | 332 | 4.8 | 9.7 | 0.00 | 0.00 | 0.00 | 59 | 1007.3 |
| 20260507054908 | 35 | 56 | 12.9 | 16.1 | 0.00 | 0.00 | 0.00 | 59 | 1007.4 |
| 20260507054404 | 35 | 68 | 12.9 | 16.1 | 0.00 | 0.00 | 0.00 | 58 | 1007.5 |
| 20260507053901 | 35 | 113 | 11.3 | 24.1 | 0.00 | 0.00 | 0.00 | 59 | 1007.8 |
| 20260507053359 | 35 | 50 | 4.8 | 12.9 | 0.00 | 0.00 | 0.00 | 59 | 1007.6 |
| 20260507052858 | 35 | 288 | 6.4 | 16.1 | 0.00 | 0.00 | 0.00 | 59 | 1007.8 |
| 20260507052354 | 34 | 112 | 8.0 | 12.9 | 0.00 | 0.00 | 0.00 | 59 | 1007.9 |
| 20260507051852 | 33 | 27 | 6.4 | 16.1 | 0.00 | 0.00 | 0.00 | 60 | 1008.0 |
| 20260507051349 | 34 | 53 | 11.3 | 20.9 | 0.00 | 0.00 | 0.00 | 60 | 1007.9 |
| 20260507050846 | 34 | 89 | 8.0 | 14.5 | 0.00 | 0.00 | 0.00 | 60 | 1008.0 |